createdAt,value
2019-04-01T00:00:38.389Z,96218.38
2019-04-01T00:03:08.498Z,96216.03
2019-04-01T00:05:36.994Z,96218.59
2019-04-01T00:08:05.483Z,96227.06
2019-04-01T00:10:34.616Z,96220.36
2019-04-01T00:13:03.158Z,96220.06
2019-04-01T00:15:31.658Z,96216.50
2019-04-01T00:18:00.195Z,96217.69
2019-04-01T00:20:28.717Z,96212.39
2019-04-01T00:22:57.326Z,96211.04
2019-04-01T00:25:25.871Z,96206.64
2019-04-01T00:27:54.363Z,96199.66
2019-04-01T00:30:22.834Z,96197.48
2019-04-01T00:32:51.289Z,96196.39
2019-04-01T00:35:19.766Z,96186.11
2019-04-01T00:37:48.259Z,96185.33
2019-04-01T00:43:10.495Z,96173.22
2019-04-01T00:45:43.399Z,96174.14
2019-04-01T00:48:11.856Z,96170.19
2019-04-01T00:50:40.323Z,96169.67
2019-04-01T00:53:08.774Z,96168.55
2019-04-01T00:55:37.243Z,96165.93
2019-04-01T00:58:05.734Z,96164.11
2019-04-01T01:00:34.306Z,96175.48
2019-04-01T01:03:02.758Z,96172.19
2019-04-01T01:05:31.243Z,96172.81
2019-04-01T01:07:59.742Z,96172.52
2019-04-01T01:10:28.216Z,96173.59
2019-04-01T01:12:57.079Z,96173.38
2019-04-01T01:15:25.558Z,96173.15
2019-04-01T01:17:54.057Z,96167.89
2019-04-01T01:20:22.886Z,96167.28
2019-04-01T01:22:51.357Z,96170.49
2019-04-01T01:25:20.176Z,96161.79
2019-04-01T01:27:48.634Z,96159.02
2019-04-01T01:30:17.377Z,96159.92
2019-04-01T01:32:45.860Z,96162.03
2019-04-01T01:35:14.400Z,96161.70
2019-04-01T01:37:42.878Z,96159.75
2019-04-01T01:40:11.510Z,96164.30
2019-04-01T01:42:39.979Z,96162.41
2019-04-01T01:45:08.604Z,96160.91
2019-04-01T01:47:37.096Z,96169.71
2019-04-01T01:50:07.029Z,96170.80
2019-04-01T01:52:35.515Z,96172.72
2019-04-01T01:55:04.753Z,96166.83
2019-04-01T01:57:33.204Z,96166.92
2019-04-01T02:00:01.699Z,96164.66
2019-04-01T02:02:30.167Z,96169.84
2019-04-01T02:04:58.634Z,96168.95
2019-04-01T02:07:27.207Z,96172.06
2019-04-01T02:09:55.675Z,96169.27
2019-04-01T02:12:24.142Z,96175.01
2019-04-01T02:14:53.013Z,96164.97
2019-04-01T02:17:21.465Z,96157.19
2019-04-01T02:19:49.957Z,96161.58
2019-04-01T02:22:18.469Z,96163.91
2019-04-01T02:24:46.920Z,96155.59
2019-04-01T02:27:15.369Z,96157.85
2019-04-01T02:29:43.865Z,96161.46
2019-04-01T02:32:12.354Z,96160.91
2019-04-01T02:34:40.841Z,96161.37
2019-04-01T02:37:09.331Z,96158.73
2019-04-01T02:39:37.816Z,96163.58
2019-04-01T02:42:06.531Z,96165.65
2019-04-01T02:44:34.986Z,96169.17
2019-04-01T02:47:03.497Z,96169.41
2019-04-01T02:49:31.991Z,96172.72
2019-04-01T02:52:00.950Z,96180.47
2019-04-01T02:54:29.431Z,96179.27
2019-04-01T02:56:57.900Z,96177.83
2019-04-01T02:59:26.377Z,96181.89
2019-04-01T03:01:54.885Z,96187.57
2019-04-01T03:04:23.365Z,96180.66
2019-04-01T03:06:51.844Z,96183.89
2019-04-01T03:09:20.414Z,96182.58
2019-04-01T03:11:48.872Z,96180.92
2019-04-01T03:14:17.372Z,96185.98
2019-04-01T03:16:45.876Z,96183.33
2019-04-01T03:19:14.337Z,96185.28
2019-04-01T03:21:42.803Z,96185.08
2019-04-01T03:24:11.290Z,96183.73
2019-04-01T03:26:39.757Z,96183.97
2019-04-01T03:29:08.393Z,96190.01
2019-04-01T03:31:36.869Z,96191.98
2019-04-01T03:34:05.434Z,96192.80
2019-04-01T03:36:33.952Z,96197.84
2019-04-01T03:39:02.454Z,96199.72
2019-04-01T03:41:30.923Z,96196.00
2019-04-01T03:43:59.440Z,96192.33
2019-04-01T03:46:27.895Z,96194.78
2019-04-01T03:48:56.357Z,96192.33
2019-04-01T03:51:24.914Z,96195.33
2019-04-01T03:53:53.372Z,96191.20
2019-04-01T03:56:21.855Z,96192.42
2019-04-01T03:58:50.334Z,96200.58
2019-04-01T04:01:18.877Z,96192.22
2019-04-01T04:03:47.366Z,96193.67
2019-04-01T04:06:16.001Z,96198.73
2019-04-01T04:08:44.485Z,96197.47
2019-04-01T04:11:13.323Z,96200.08
2019-04-01T04:13:41.751Z,96196.75
2019-04-01T04:16:10.218Z,96196.04
2019-04-01T04:18:38.787Z,96202.52
2019-04-01T04:21:07.276Z,96201.02
2019-04-01T04:23:35.716Z,96195.70
2019-04-01T04:26:04.198Z,96203.97
2019-04-01T04:28:32.690Z,96197.78
2019-04-01T04:31:01.239Z,96202.03
2019-04-01T04:33:29.739Z,96199.63
2019-04-01T04:35:58.213Z,96201.20
2019-04-01T04:38:26.705Z,96200.38
2019-04-01T04:40:55.194Z,96209.95
2019-04-01T04:43:23.713Z,96206.53
2019-04-01T04:45:52.251Z,96209.64
2019-04-01T04:48:20.757Z,96205.50
2019-04-01T04:50:49.238Z,96206.84
2019-04-01T04:53:17.710Z,96214.66
2019-04-01T04:55:46.213Z,96222.38
2019-04-01T04:58:14.665Z,96212.37
2019-04-01T05:00:43.231Z,96209.56
2019-04-01T05:03:11.707Z,96210.91
2019-04-01T05:05:40.162Z,96210.08
2019-04-01T05:08:08.645Z,96206.77
2019-04-01T05:10:37.132Z,96207.78
2019-04-01T05:13:05.653Z,96208.49
2019-04-01T05:15:34.261Z,96211.20
2019-04-01T05:18:02.717Z,96208.11
2019-04-01T05:20:32.949Z,96215.04
2019-04-01T05:23:03.072Z,96221.63
2019-04-01T05:25:32.438Z,96219.34
2019-04-01T05:28:03.831Z,96219.57
2019-04-01T05:30:33.890Z,96213.78
2019-04-01T05:33:04.182Z,96215.83
2019-04-01T05:35:35.981Z,96216.77
2019-04-01T05:38:06.840Z,96212.64
2019-04-01T05:40:36.254Z,96215.63
2019-04-01T05:43:05.419Z,96211.81
2019-04-01T05:45:34.023Z,96214.17
2019-04-01T05:48:02.471Z,96201.16
2019-04-01T05:50:31.889Z,96215.38
2019-04-01T05:53:00.342Z,96211.55
2019-04-01T05:55:28.881Z,96217.33
2019-04-01T05:57:57.514Z,96221.03
2019-04-01T06:00:30.540Z,96225.88
2019-04-01T06:02:59.173Z,96225.05
2019-04-01T06:05:27.828Z,96214.34
2019-04-01T06:07:56.582Z,96223.31
2019-04-01T06:10:25.075Z,96223.31
2019-04-01T06:12:54.156Z,96222.27
2019-04-01T06:15:22.736Z,96224.78
2019-04-01T06:17:51.312Z,96223.85
2019-04-01T06:20:19.826Z,96226.01
2019-04-01T06:22:48.477Z,96218.56
2019-04-01T06:25:17.071Z,96219.00
2019-04-01T06:27:45.561Z,96218.48
2019-04-01T06:30:14.203Z,96221.23
2019-04-01T06:32:42.773Z,96222.31
2019-04-01T06:35:11.411Z,96227.04
2019-04-01T06:37:39.925Z,96230.75
2019-04-01T06:40:08.746Z,96228.48
2019-04-01T06:42:37.240Z,96226.01
2019-04-01T06:45:08.966Z,96220.66
2019-04-01T06:47:37.464Z,96218.80
2019-04-01T06:50:06.989Z,96216.02
2019-04-01T06:52:35.735Z,96219.53
2019-04-01T06:55:05.753Z,96216.25
2019-04-01T06:57:34.452Z,96219.33
2019-04-01T07:00:03.080Z,96226.02
2019-04-01T07:02:31.640Z,96225.08
2019-04-01T07:05:00.403Z,96218.05
2019-04-01T07:07:28.965Z,96220.00
2019-04-01T07:09:57.578Z,96219.30
2019-04-01T07:12:26.088Z,96221.28
2019-04-01T07:14:54.643Z,96218.50
2019-04-01T07:17:23.196Z,96216.66
2019-04-01T07:19:51.765Z,96213.97
2019-04-01T07:22:21.182Z,96214.53
2019-04-01T07:24:49.727Z,96218.63
2019-04-01T07:27:18.238Z,96218.42
2019-04-01T07:29:46.798Z,96215.73
2019-04-01T07:32:15.372Z,96213.15
2019-04-01T07:34:43.937Z,96216.38
2019-04-01T07:37:12.554Z,96217.84
2019-04-01T07:39:41.045Z,96220.30
2019-04-01T07:42:09.642Z,96220.80
2019-04-01T07:44:38.142Z,96225.06
2019-04-01T07:47:06.761Z,96223.35
2019-04-01T07:49:35.505Z,96223.87
2019-04-01T07:52:04.719Z,96213.46
2019-04-01T07:54:34.137Z,96222.84
2019-04-01T07:57:02.716Z,96220.16
2019-04-01T07:59:31.252Z,96220.98
2019-04-01T08:01:59.822Z,96216.66
2019-04-01T08:04:28.328Z,96220.36
2019-04-01T08:06:57.645Z,96218.11
2019-04-01T08:09:26.177Z,96219.44
2019-04-01T08:11:54.828Z,96218.01
2019-04-01T08:14:23.442Z,96213.05
2019-04-01T08:16:52.002Z,96210.91
2019-04-01T08:19:20.634Z,96210.46
2019-04-01T08:21:52.218Z,96202.20
2019-04-01T08:24:19.542Z,96206.77
2019-04-01T08:26:48.096Z,96210.06
2019-04-01T08:29:29.419Z,96213.00
2019-04-01T08:31:47.086Z,96209.96
2019-04-01T08:34:16.622Z,96210.53
2019-04-01T08:36:45.579Z,96208.27
2019-04-01T08:39:15.817Z,96214.33
2019-04-01T08:41:44.419Z,96215.03
2019-04-01T08:44:13.054Z,96205.66
2019-04-01T08:46:41.560Z,96208.80
2019-04-01T08:49:10.110Z,96200.91
2019-04-01T08:51:38.597Z,96202.88
2019-04-01T08:54:07.175Z,96207.97
2019-04-01T08:56:38.041Z,96208.03
2019-04-01T08:59:05.995Z,96211.94
2019-04-01T09:01:39.917Z,96204.36
2019-04-01T09:04:08.406Z,96212.73
2019-04-01T09:06:36.965Z,96210.14
2019-04-01T09:09:07.221Z,96213.00
2019-04-01T09:11:38.434Z,96203.98
2019-04-01T09:14:06.783Z,96209.31
2019-04-01T09:16:36.133Z,96202.27
2019-04-01T09:19:04.763Z,96199.84
2019-04-01T09:21:33.263Z,96206.17
2019-04-01T09:24:01.761Z,96206.80
2019-04-01T09:26:30.253Z,96199.05
2019-04-01T09:28:58.760Z,96189.67
2019-04-01T09:31:27.322Z,96196.91
2019-04-01T09:33:55.807Z,96194.89
2019-04-01T09:36:24.422Z,96185.16
2019-04-01T09:38:52.870Z,96191.48
2019-04-01T09:41:21.361Z,96187.20
2019-04-01T09:43:49.858Z,96188.46
2019-04-01T09:46:18.418Z,96194.35
2019-04-01T09:48:46.932Z,96183.73
2019-04-01T09:51:15.403Z,96189.23
2019-04-01T09:53:43.892Z,96180.39
2019-04-01T09:56:12.405Z,96172.78
2019-04-01T09:58:40.909Z,96176.72
2019-04-01T10:01:09.400Z,96177.86
2019-04-01T10:03:37.900Z,96173.30
2019-04-01T10:06:06.400Z,96177.38
2019-04-01T10:08:42.198Z,96174.73
2019-04-01T10:11:05.488Z,96169.58
2019-04-01T10:13:33.971Z,96173.70
2019-04-01T10:16:02.550Z,96166.69
2019-04-01T10:18:31.031Z,96163.58
2019-04-01T10:21:00.206Z,96157.33
2019-04-01T10:23:28.730Z,96152.37
2019-04-01T10:25:57.219Z,96153.46
2019-04-01T10:28:25.683Z,96158.64
2019-04-01T10:30:54.198Z,96145.61
2019-04-01T10:33:22.697Z,96143.97
2019-04-01T10:35:51.190Z,96147.80
2019-04-01T10:38:19.674Z,96147.55
2019-04-01T10:40:48.149Z,96144.88
2019-04-01T10:43:16.654Z,96148.50
2019-04-01T10:45:45.258Z,96143.09
2019-04-01T10:48:13.789Z,96139.34
2019-04-01T10:50:42.622Z,96140.18
2019-04-01T10:53:11.104Z,96136.64
2019-04-01T10:55:39.570Z,96133.38
2019-04-01T10:58:08.118Z,96128.48
2019-04-01T11:00:36.630Z,96124.94
2019-04-01T11:03:06.213Z,96123.03
2019-04-01T11:05:35.130Z,96120.59
2019-04-01T11:08:03.655Z,96112.41
2019-04-01T11:10:32.176Z,96115.14
2019-04-01T11:13:00.680Z,96103.16
2019-04-01T11:15:29.309Z,96107.54
2019-04-01T11:17:57.811Z,96107.52
2019-04-01T11:20:26.300Z,96100.97
2019-04-01T11:22:54.770Z,96101.82
2019-04-01T11:25:23.260Z,96094.70
2019-04-01T11:27:51.778Z,96096.86
2019-04-01T11:30:20.400Z,96092.78
2019-04-01T11:32:48.928Z,96096.27
2019-04-01T11:35:17.508Z,96094.86
2019-04-01T11:37:46.093Z,96093.46
2019-04-01T11:40:15.518Z,96083.45
2019-04-01T11:42:44.246Z,96083.09
2019-04-01T11:45:13.074Z,96087.73
2019-04-01T11:47:41.736Z,96085.52
2019-04-01T11:50:10.539Z,96081.88
2019-04-01T11:52:39.133Z,96086.38
2019-04-01T11:55:09.247Z,96081.45
2019-04-01T11:57:38.362Z,96080.45
2019-04-01T12:00:12.882Z,96077.95
2019-04-01T12:02:41.803Z,96067.80
2019-04-01T12:05:10.664Z,96072.66
2019-04-01T12:07:39.181Z,96066.91
2019-04-01T12:10:08.027Z,96071.61
2019-04-01T12:12:36.491Z,96063.41
2019-04-01T12:15:06.335Z,96065.27
2019-04-01T12:17:34.984Z,96062.96
2019-04-01T12:20:04.027Z,96060.45
2019-04-01T12:22:32.583Z,96055.03
2019-04-01T12:25:01.121Z,96055.66
2019-04-01T12:27:29.626Z,96051.61
2019-04-01T12:29:58.117Z,96048.84
2019-04-01T12:32:26.729Z,96041.58
2019-04-01T12:34:55.363Z,96045.62
2019-04-01T12:37:23.867Z,96039.86
2019-04-01T12:39:52.387Z,96039.86
2019-04-01T12:42:20.888Z,96031.69
2019-04-01T12:44:49.451Z,96040.75
2019-04-01T12:47:18.102Z,96039.05
2019-04-01T12:49:46.583Z,96032.70
2019-04-01T12:52:15.279Z,96032.82
2019-04-01T12:54:43.895Z,96027.20
2019-04-01T12:57:13.220Z,96025.59
2019-04-01T12:59:42.346Z,96029.20
2019-04-01T13:02:11.989Z,96030.45
2019-04-01T13:04:40.486Z,96020.78
2019-04-01T13:07:09.005Z,96015.89
2019-04-01T13:09:37.492Z,96009.67
2019-04-01T13:12:06.176Z,96009.60
2019-04-01T13:14:34.678Z,96007.02
2019-04-01T13:17:03.291Z,96009.61
2019-04-01T13:19:32.036Z,96004.19
2019-04-01T13:22:00.546Z,96001.10
2019-04-01T13:24:29.055Z,96000.39
2019-04-01T13:26:57.574Z,96004.31
2019-04-01T13:29:26.136Z,95997.18
2019-04-01T13:31:54.608Z,95997.63
2019-04-01T13:34:23.125Z,95999.81
2019-04-01T13:36:51.622Z,95994.75
2019-04-01T13:39:20.092Z,95997.06
2019-04-01T13:41:48.624Z,95993.71
2019-04-01T13:44:17.101Z,95998.84
2019-04-01T13:46:48.500Z,95992.72
2019-04-01T13:49:15.806Z,95988.95
2019-04-01T13:51:44.399Z,95981.39
2019-04-01T13:54:12.967Z,95985.34
2019-04-01T13:56:42.949Z,95979.09
2019-04-01T13:59:12.606Z,95986.07
2019-04-01T14:01:41.462Z,95977.03
2019-04-01T14:04:09.943Z,95976.91
2019-04-01T14:06:38.456Z,95975.75
2019-04-01T14:09:07.645Z,95969.62
2019-04-01T14:11:36.213Z,95965.13
2019-04-01T14:14:04.943Z,95973.24
2019-04-01T14:16:33.433Z,95962.45
2019-04-01T14:19:01.895Z,95961.93
2019-04-01T14:21:30.382Z,95957.88
2019-04-01T14:23:58.855Z,95956.58
2019-04-01T14:26:27.332Z,95955.36
2019-04-01T14:28:55.818Z,95949.10
2019-04-01T14:31:24.285Z,95955.79
2019-04-01T14:33:52.770Z,95949.77
2019-04-01T14:36:21.258Z,95954.88
2019-04-01T14:38:49.758Z,95952.34
2019-04-01T14:41:18.225Z,95951.23
2019-04-01T14:43:46.700Z,95951.14
2019-04-01T14:46:15.561Z,95953.63
2019-04-01T14:48:44.057Z,95951.38
2019-04-01T14:51:12.535Z,95958.81
2019-04-01T14:53:41.005Z,95956.78
2019-04-01T14:56:09.487Z,95950.37
2019-04-01T14:58:37.958Z,95951.67
2019-04-01T15:01:06.762Z,95950.66
2019-04-01T15:03:35.398Z,95945.30
2019-04-01T15:06:03.946Z,95940.66
2019-04-01T15:08:32.505Z,95944.77
2019-04-01T15:11:00.989Z,95939.56
2019-04-01T15:13:29.474Z,95927.60
2019-04-01T15:15:57.982Z,95946.69
2019-04-01T15:18:26.437Z,95944.01
2019-04-01T15:20:55.299Z,95945.74
2019-04-01T15:23:25.114Z,95944.49
2019-04-01T15:25:54.525Z,95943.67
2019-04-01T15:28:23.306Z,95942.08
2019-04-01T15:30:51.796Z,95941.48
2019-04-01T15:33:21.089Z,95940.38
2019-04-01T15:35:49.886Z,95943.98
2019-04-01T15:38:18.552Z,95946.53
2019-04-01T15:40:47.219Z,95942.80
2019-04-01T15:43:15.996Z,95941.53
2019-04-01T15:45:44.725Z,95945.16
2019-04-01T15:48:13.226Z,95940.36
2019-04-01T15:50:41.847Z,95937.31
2019-04-01T15:53:10.306Z,95946.53
2019-04-01T15:55:38.811Z,95931.50
2019-04-01T15:58:07.376Z,95934.37
2019-04-01T16:00:36.109Z,95931.16
2019-04-01T16:03:04.753Z,95929.00
2019-04-01T16:05:34.133Z,95926.55
2019-04-01T16:08:02.977Z,95925.45
2019-04-01T16:10:31.856Z,95929.56
2019-04-01T16:13:00.292Z,95930.64
2019-04-01T16:15:31.902Z,95932.61
2019-04-01T16:17:58.948Z,95929.67
2019-04-01T16:20:27.404Z,95926.95
2019-04-01T16:22:55.924Z,95923.95
2019-04-01T16:25:24.410Z,95921.53
2019-04-01T16:27:52.888Z,95925.09
2019-04-01T16:30:21.380Z,95925.91
2019-04-01T16:32:49.870Z,95931.41
2019-04-01T16:35:18.337Z,95929.23
2019-04-01T16:37:46.831Z,95931.73
2019-04-01T16:40:16.165Z,95931.75
2019-04-01T16:42:44.597Z,95932.88
2019-04-01T16:45:13.923Z,95933.70
2019-04-01T16:47:42.557Z,95937.02
2019-04-01T16:50:11.799Z,95930.23
2019-04-01T16:52:40.677Z,95935.46
2019-04-01T16:55:10.800Z,95938.77
2019-04-01T16:57:39.299Z,95939.34
2019-04-01T17:00:14.138Z,95935.56
2019-04-01T17:02:40.842Z,95931.52
2019-04-01T17:05:09.866Z,95940.55
2019-04-01T17:07:38.376Z,95927.48
2019-04-01T17:10:07.086Z,95938.11
2019-04-01T17:12:35.586Z,95932.66
2019-04-01T17:15:04.897Z,95941.10
2019-04-01T17:17:33.416Z,95938.95
2019-04-01T17:20:01.927Z,95932.92
2019-04-01T17:22:31.272Z,95942.20
2019-04-01T17:25:00.572Z,95937.81
2019-04-01T17:27:29.074Z,95942.42
2019-04-01T17:29:57.569Z,95939.44
2019-04-01T17:32:26.471Z,95940.51
2019-04-01T17:34:54.963Z,95939.16
2019-04-01T17:37:23.461Z,95940.75
2019-04-01T17:39:51.950Z,95944.55
2019-04-01T17:42:20.507Z,95947.73
2019-04-01T17:44:52.050Z,95949.89
2019-04-01T17:47:20.554Z,95949.05
2019-04-01T17:49:49.135Z,95949.58
2019-04-01T17:52:17.637Z,95950.08
2019-04-01T17:54:46.137Z,95951.67
2019-04-01T17:57:15.972Z,95949.19
2019-04-01T17:59:44.860Z,95952.91
2019-04-01T18:02:15.107Z,95950.17
2019-04-01T18:04:43.609Z,95946.64
2019-04-01T18:07:12.090Z,95952.88
2019-04-01T18:09:40.592Z,95957.19
2019-04-01T18:12:09.074Z,95956.48
2019-04-01T18:14:37.971Z,95957.78
2019-04-01T18:17:06.535Z,95953.13
2019-04-01T18:19:36.142Z,95960.73
2019-04-01T18:22:04.990Z,95957.70
2019-04-01T18:24:33.468Z,95967.42
2019-04-01T18:27:02.003Z,95966.32
2019-04-01T18:29:30.498Z,95976.33
2019-04-01T18:31:59.221Z,95973.84
2019-04-01T18:34:28.064Z,95975.13
2019-04-01T18:36:56.959Z,95980.06
2019-04-01T18:39:25.451Z,95978.91
2019-04-01T18:41:53.914Z,95968.28
2019-04-01T18:44:22.414Z,95983.55
2019-04-01T18:46:50.905Z,95987.38
2019-04-01T18:49:19.742Z,95990.09
2019-04-01T18:51:48.255Z,95991.50
2019-04-01T18:54:16.732Z,95998.94
2019-04-01T18:56:47.643Z,95995.36
2019-04-01T18:59:15.411Z,95998.53
2019-04-01T19:01:44.190Z,95998.08
2019-04-01T19:04:13.102Z,96001.81
2019-04-01T19:06:41.640Z,96000.09
2019-04-01T19:09:11.757Z,96000.66
2019-04-01T19:11:43.305Z,95999.80
2019-04-01T19:14:11.194Z,95998.97
2019-04-01T19:16:40.207Z,95998.15
2019-04-01T19:19:08.679Z,96000.28
2019-04-01T19:21:37.473Z,95999.95
2019-04-01T19:24:06.923Z,96003.39
2019-04-01T19:26:35.566Z,96001.98
2019-04-01T19:29:04.053Z,96003.77
2019-04-01T19:31:32.538Z,96007.55
2019-04-01T19:34:00.982Z,96001.80
2019-04-01T19:36:30.155Z,96004.27
2019-04-01T19:38:58.894Z,96010.05
2019-04-01T19:41:27.453Z,96005.17
2019-04-01T19:43:55.924Z,96006.19
2019-04-01T19:46:24.403Z,96008.08
2019-04-01T19:48:52.878Z,96000.05
2019-04-01T19:51:21.414Z,96014.63
2019-04-01T19:53:49.900Z,96014.29
2019-04-01T19:56:18.383Z,96012.53
2019-04-01T19:58:46.834Z,96011.95
2019-04-01T20:01:15.367Z,96007.11
2019-04-01T20:03:43.911Z,96009.41
2019-04-01T20:06:12.393Z,96013.88
2019-04-01T20:08:40.859Z,96015.17
2019-04-01T20:11:09.360Z,96011.84
2019-04-01T20:13:39.297Z,96009.08
2019-04-01T20:16:10.198Z,96015.36
2019-04-01T20:18:38.428Z,96008.31
2019-04-01T20:21:07.046Z,96010.19
2019-04-01T20:23:35.576Z,96007.02
2019-04-01T20:26:04.479Z,96004.09
2019-04-01T20:28:32.974Z,95999.74
2019-04-01T20:31:01.469Z,96008.38
2019-04-01T20:33:31.791Z,96007.17
2019-04-01T20:36:00.151Z,96002.64
2019-04-01T20:38:28.625Z,96005.97
2019-04-01T20:40:57.118Z,96000.20
2019-04-01T20:43:25.585Z,96002.94
2019-04-01T20:45:54.070Z,96008.11
2019-04-01T20:48:22.550Z,96003.61
2019-04-01T20:50:51.027Z,96000.94
2019-04-01T20:53:19.524Z,96000.56
2019-04-01T20:55:49.640Z,95993.08
2019-04-01T20:58:18.235Z,95993.08
2019-04-01T21:00:46.762Z,95999.16
2019-04-01T21:03:15.278Z,95998.00
2019-04-01T21:05:43.827Z,96001.41
2019-04-01T21:08:12.336Z,95998.94
2019-04-01T21:10:42.113Z,95999.52
2019-04-01T21:13:11.036Z,95996.66
2019-04-01T21:15:39.513Z,95995.34
2019-04-01T21:18:07.981Z,95991.65
2019-04-01T21:20:36.476Z,95990.95
2019-04-01T21:23:04.943Z,95991.57
2019-04-01T21:25:33.410Z,95990.81
2019-04-01T21:28:01.861Z,95995.85
2019-04-01T21:30:30.427Z,95989.40
2019-04-01T21:32:58.896Z,95994.56
2019-04-01T21:35:27.394Z,95988.93
2019-04-01T21:37:55.893Z,95989.55
2019-04-01T21:40:24.398Z,95983.93
2019-04-01T21:42:52.876Z,95983.61
2019-04-01T21:45:21.346Z,95987.06
2019-04-01T21:47:49.835Z,95984.36
2019-04-01T21:50:18.696Z,95983.11
2019-04-01T21:52:47.189Z,95983.77
2019-04-01T21:55:15.755Z,95979.19
2019-04-01T21:57:44.243Z,95983.33
2019-04-01T22:00:18.035Z,95982.11
2019-04-01T22:02:46.833Z,95975.83
2019-04-01T22:05:15.438Z,95979.81
2019-04-01T22:07:43.926Z,95975.44
2019-04-01T22:10:12.700Z,95974.25
2019-04-01T22:12:41.201Z,95969.09
2019-04-01T22:15:09.764Z,95973.66
2019-04-01T22:17:38.260Z,95966.56
2019-04-01T22:20:07.400Z,95965.30
2019-04-01T22:22:37.065Z,95962.05
2019-04-01T22:25:06.064Z,95963.92
2019-04-01T22:27:34.586Z,95962.47
2019-04-01T22:30:03.168Z,95963.55
2019-04-01T22:32:31.649Z,95959.83
2019-04-01T22:35:00.159Z,95967.28
2019-04-01T22:37:28.663Z,95962.63
2019-04-01T22:39:57.158Z,95963.67
2019-04-01T22:42:27.043Z,95963.19
2019-04-01T22:44:55.621Z,95965.98
2019-04-01T22:47:24.558Z,95960.67
2019-04-01T22:49:53.256Z,95955.24
2019-04-01T22:52:21.781Z,95967.50
2019-04-01T22:54:50.259Z,95964.80
2019-04-01T22:57:18.723Z,95971.77
2019-04-01T22:59:48.245Z,95963.88
2019-04-01T23:02:17.637Z,95958.75
2019-04-01T23:04:46.104Z,95968.84
2019-04-01T23:07:14.584Z,95973.38
2019-04-01T23:09:43.087Z,95958.50
2019-04-01T23:12:11.551Z,95959.63
2019-04-01T23:14:40.018Z,95956.31
2019-04-01T23:17:09.212Z,95960.95
2019-04-01T23:19:38.932Z,95957.47
2019-04-01T23:22:07.457Z,95961.77
2019-04-01T23:24:35.949Z,95966.03
2019-04-01T23:27:05.088Z,95958.83
2019-04-01T23:29:33.564Z,95956.38
2019-04-01T23:32:02.046Z,95955.31
2019-04-01T23:34:30.534Z,95958.84
2019-04-01T23:36:59.017Z,95954.23
2019-04-01T23:39:27.523Z,95958.09
2019-04-01T23:41:55.988Z,95950.16
2019-04-01T23:44:24.445Z,95953.37
2019-04-01T23:46:52.957Z,95957.20
2019-04-01T23:49:21.445Z,95947.22
2019-04-01T23:51:49.939Z,95951.94
2019-04-01T23:54:18.401Z,95953.89
2019-04-01T23:56:46.856Z,95951.74
2019-04-01T23:59:15.343Z,95954.23
